sensor_id;sensor_type;location;lat;lon;timestamp;P1;durP1;ratioP1;P2;durP2;ratioP2
74245;SDS011;62601;51.044;13.788;2022-10-30T00:01:03;33.83;;;23.10;;
74245;SDS011;62601;51.044;13.788;2022-10-30T00:03:23;31.23;;;22.07;;
74245;SDS011;62601;51.044;13.788;2022-10-30T00:05:44;29.87;;;20.17;;
74245;SDS011;62601;51.044;13.788;2022-10-30T00:08:05;27.87;;;21.07;;
74245;SDS011;62601;51.044;13.788;2022-10-30T00:10:26;29.23;;;19.07;;
74245;SDS011;62601;51.044;13.788;2022-10-30T00:12:47;28.50;;;19.00;;
74245;SDS011;62601;51.044;13.788;2022-10-30T00:15:09;29.90;;;20.40;;
74245;SDS011;62601;51.044;13.788;2022-10-30T00:17:29;24.77;;;18.67;;
74245;SDS011;62601;51.044;13.788;2022-10-30T00:19:50;29.33;;;19.97;;
74245;SDS011;62601;51.044;13.788;2022-10-30T00:22:10;29.33;;;21.77;;
74245;SDS011;62601;51.044;13.788;2022-10-30T00:24:30;28.00;;;18.70;;
74245;SDS011;62601;51.044;13.788;2022-10-30T00:26:51;29.03;;;19.63;;
74245;SDS011;62601;51.044;13.788;2022-10-30T00:29:11;26.03;;;19.90;;
74245;SDS011;62601;51.044;13.788;2022-10-30T00:31:31;26.77;;;17.33;;
74245;SDS011;62601;51.044;13.788;2022-10-30T00:33:52;27.80;;;18.83;;
74245;SDS011;62601;51.044;13.788;2022-10-30T00:36:13;28.90;;;20.00;;
74245;SDS011;62601;51.044;13.788;2022-10-30T00:38:34;23.40;;;17.90;;
74245;SDS011;62601;51.044;13.788;2022-10-30T00:40:54;23.40;;;19.20;;
74245;SDS011;62601;51.044;13.788;2022-10-30T00:43:26;26.77;;;19.83;;
74245;SDS011;62601;51.044;13.788;2022-10-30T00:45:46;28.63;;;19.53;;
74245;SDS011;62601;51.044;13.788;2022-10-30T00:48:07;21.67;;;17.43;;
74245;SDS011;62601;51.044;13.788;2022-10-30T00:50:33;24.60;;;17.67;;
74245;SDS011;62601;51.044;13.788;2022-10-30T00:52:59;25.00;;;18.47;;
74245;SDS011;62601;51.044;13.788;2022-10-30T00:55:30;24.00;;;17.70;;
74245;SDS011;62601;51.044;13.788;2022-10-30T00:57:54;29.20;;;19.17;;
74245;SDS011;62601;51.044;13.788;2022-10-30T01:00:16;23.60;;;18.60;;
74245;SDS011;62601;51.044;13.788;2022-10-30T01:02:39;24.63;;;18.40;;
74245;SDS011;62601;51.044;13.788;2022-10-30T01:05:02;26.57;;;18.40;;
74245;SDS011;62601;51.044;13.788;2022-10-30T01:07:24;25.07;;;18.47;;
74245;SDS011;62601;51.044;13.788;2022-10-30T01:09:45;23.33;;;18.33;;
74245;SDS011;62601;51.044;13.788;2022-10-30T01:12:09;24.80;;;20.30;;
74245;SDS011;62601;51.044;13.788;2022-10-30T01:14:30;26.00;;;18.40;;
74245;SDS011;62601;51.044;13.788;2022-10-30T01:22:36;26.43;;;19.53;;
74245;SDS011;62601;51.044;13.788;2022-10-30T01:25:14;26.50;;;18.63;;
74245;SDS011;62601;51.044;13.788;2022-10-30T01:27:38;22.50;;;18.13;;
74245;SDS011;62601;51.044;13.788;2022-10-30T01:30:09;23.47;;;18.07;;
74245;SDS011;62601;51.044;13.788;2022-10-30T01:40:02;28.17;;;20.60;;
74245;SDS011;62601;51.044;13.788;2022-10-30T01:45:03;23.70;;;17.60;;
74245;SDS011;62601;51.044;13.788;2022-10-30T01:47:44;24.63;;;17.37;;
74245;SDS011;62601;51.044;13.788;2022-10-30T01:52:53;22.50;;;17.37;;
74245;SDS011;62601;51.044;13.788;2022-10-30T01:55:41;23.87;;;18.57;;
74245;SDS011;62601;51.044;13.788;2022-10-30T01:58:26;21.83;;;17.30;;
74245;SDS011;62601;51.044;13.788;2022-10-30T02:00:48;24.17;;;18.03;;
74245;SDS011;62601;51.044;13.788;2022-10-30T02:03:11;24.13;;;17.63;;
74245;SDS011;62601;51.044;13.788;2022-10-30T02:05:36;29.23;;;20.00;;
74245;SDS011;62601;51.044;13.788;2022-10-30T02:07:58;25.13;;;18.80;;
74245;SDS011;62601;51.044;13.788;2022-10-30T02:10:19;28.43;;;18.90;;
74245;SDS011;62601;51.044;13.788;2022-10-30T02:12:40;24.53;;;18.70;;
74245;SDS011;62601;51.044;13.788;2022-10-30T02:15:00;23.60;;;18.63;;
74245;SDS011;62601;51.044;13.788;2022-10-30T02:17:21;27.73;;;18.13;;
74245;SDS011;62601;51.044;13.788;2022-10-30T02:19:45;22.73;;;16.67;;
74245;SDS011;62601;51.044;13.788;2022-10-30T02:22:05;22.93;;;17.77;;
74245;SDS011;62601;51.044;13.788;2022-10-30T02:24:27;23.40;;;17.30;;
74245;SDS011;62601;51.044;13.788;2022-10-30T02:26:48;25.20;;;17.80;;
74245;SDS011;62601;51.044;13.788;2022-10-30T02:29:10;22.10;;;17.70;;
74245;SDS011;62601;51.044;13.788;2022-10-30T02:31:31;23.23;;;17.10;;
74245;SDS011;62601;51.044;13.788;2022-10-30T02:33:53;22.90;;;17.73;;
74245;SDS011;62601;51.044;13.788;2022-10-30T02:36:13;21.43;;;15.83;;
74245;SDS011;62601;51.044;13.788;2022-10-30T02:38:34;29.50;;;18.10;;
74245;SDS011;62601;51.044;13.788;2022-10-30T02:40:56;22.57;;;17.57;;
74245;SDS011;62601;51.044;13.788;2022-10-30T02:43:20;23.17;;;16.80;;
74245;SDS011;62601;51.044;13.788;2022-10-30T02:45:41;20.70;;;17.13;;
74245;SDS011;62601;51.044;13.788;2022-10-30T02:48:01;22.00;;;16.83;;
74245;SDS011;62601;51.044;13.788;2022-10-30T02:50:23;25.00;;;18.43;;
74245;SDS011;62601;51.044;13.788;2022-10-30T02:52:45;25.23;;;17.90;;
74245;SDS011;62601;51.044;13.788;2022-10-30T02:55:06;22.10;;;18.30;;
74245;SDS011;62601;51.044;13.788;2022-10-30T02:57:28;26.93;;;20.83;;
74245;SDS011;62601;51.044;13.788;2022-10-30T02:59:48;27.13;;;18.40;;
74245;SDS011;62601;51.044;13.788;2022-10-30T03:02:09;26.10;;;17.73;;
74245;SDS011;62601;51.044;13.788;2022-10-30T03:04:29;29.13;;;20.97;;
74245;SDS011;62601;51.044;13.788;2022-10-30T03:06:50;25.53;;;19.47;;
74245;SDS011;62601;51.044;13.788;2022-10-30T03:09:12;24.73;;;18.90;;
74245;SDS011;62601;51.044;13.788;2022-10-30T03:11:33;23.40;;;18.10;;
74245;SDS011;62601;51.044;13.788;2022-10-30T03:13:55;22.00;;;17.00;;
74245;SDS011;62601;51.044;13.788;2022-10-30T03:16:17;23.00;;;16.77;;
74245;SDS011;62601;51.044;13.788;2022-10-30T03:18:38;22.90;;;16.10;;
74245;SDS011;62601;51.044;13.788;2022-10-30T03:20:59;21.20;;;16.13;;
74245;SDS011;62601;51.044;13.788;2022-10-30T03:23:19;22.13;;;15.77;;
74245;SDS011;62601;51.044;13.788;2022-10-30T03:25:39;21.87;;;17.40;;
74245;SDS011;62601;51.044;13.788;2022-10-30T03:28:00;25.53;;;16.83;;
74245;SDS011;62601;51.044;13.788;2022-10-30T03:30:20;26.00;;;17.97;;
74245;SDS011;62601;51.044;13.788;2022-10-30T03:32:40;21.57;;;16.10;;
74245;SDS011;62601;51.044;13.788;2022-10-30T03:35:00;23.00;;;16.90;;
74245;SDS011;62601;51.044;13.788;2022-10-30T03:37:20;23.07;;;16.60;;
74245;SDS011;62601;51.044;13.788;2022-10-30T03:39:40;21.20;;;16.50;;
74245;SDS011;62601;51.044;13.788;2022-10-30T03:42:00;23.20;;;16.77;;
74245;SDS011;62601;51.044;13.788;2022-10-30T03:44:20;19.90;;;15.80;;
74245;SDS011;62601;51.044;13.788;2022-10-30T03:46:41;21.70;;;16.10;;
74245;SDS011;62601;51.044;13.788;2022-10-30T03:49:02;21.33;;;16.33;;
74245;SDS011;62601;51.044;13.788;2022-10-30T03:51:22;19.97;;;15.80;;
74245;SDS011;62601;51.044;13.788;2022-10-30T03:53:42;21.93;;;16.10;;
74245;SDS011;62601;51.044;13.788;2022-10-30T03:56:03;21.93;;;15.53;;
74245;SDS011;62601;51.044;13.788;2022-10-30T03:58:25;21.03;;;17.63;;
74245;SDS011;62601;51.044;13.788;2022-10-30T04:00:45;22.47;;;15.93;;
74245;SDS011;62601;51.044;13.788;2022-10-30T04:03:05;19.53;;;15.47;;
74245;SDS011;62601;51.044;13.788;2022-10-30T04:05:26;22.60;;;18.13;;
74245;SDS011;62601;51.044;13.788;2022-10-30T04:07:53;21.70;;;17.97;;
74245;SDS011;62601;51.044;13.788;2022-10-30T04:10:15;25.67;;;21.07;;
74245;SDS011;62601;51.044;13.788;2022-10-30T04:12:37;27.20;;;19.53;;
74245;SDS011;62601;51.044;13.788;2022-10-30T04:14:57;20.73;;;16.90;;
74245;SDS011;62601;51.044;13.788;2022-10-30T04:17:17;22.73;;;16.27;;
74245;SDS011;62601;51.044;13.788;2022-10-30T04:19:38;24.47;;;17.03;;
74245;SDS011;62601;51.044;13.788;2022-10-30T04:22:00;17.97;;;16.00;;
74245;SDS011;62601;51.044;13.788;2022-10-30T04:24:20;21.87;;;16.50;;
74245;SDS011;62601;51.044;13.788;2022-10-30T04:26:40;22.63;;;16.60;;
74245;SDS011;62601;51.044;13.788;2022-10-30T04:29:01;21.10;;;15.97;;
74245;SDS011;62601;51.044;13.788;2022-10-30T04:31:23;24.87;;;16.10;;
74245;SDS011;62601;51.044;13.788;2022-10-30T04:33:44;20.70;;;16.30;;
74245;SDS011;62601;51.044;13.788;2022-10-30T04:36:05;23.30;;;17.37;;
74245;SDS011;62601;51.044;13.788;2022-10-30T04:38:26;22.60;;;16.10;;
74245;SDS011;62601;51.044;13.788;2022-10-30T04:40:46;20.60;;;16.63;;
74245;SDS011;62601;51.044;13.788;2022-10-30T04:43:08;18.87;;;15.87;;
74245;SDS011;62601;51.044;13.788;2022-10-30T04:45:33;24.70;;;16.90;;
74245;SDS011;62601;51.044;13.788;2022-10-30T04:48:05;20.55;;;15.05;;
74245;SDS011;62601;51.044;13.788;2022-10-30T04:50:25;22.60;;;16.23;;
74245;SDS011;62601;51.044;13.788;2022-10-30T04:52:45;24.57;;;16.27;;
74245;SDS011;62601;51.044;13.788;2022-10-30T04:55:06;22.23;;;15.93;;
74245;SDS011;62601;51.044;13.788;2022-10-30T04:57:28;21.40;;;16.70;;
74245;SDS011;62601;51.044;13.788;2022-10-30T04:59:52;20.73;;;16.67;;
74245;SDS011;62601;51.044;13.788;2022-10-30T05:02:13;23.07;;;16.37;;
74245;SDS011;62601;51.044;13.788;2022-10-30T05:04:35;21.23;;;17.00;;
74245;SDS011;62601;51.044;13.788;2022-10-30T05:06:56;23.23;;;16.27;;
74245;SDS011;62601;51.044;13.788;2022-10-30T05:09:16;20.90;;;15.43;;
74245;SDS011;62601;51.044;13.788;2022-10-30T05:11:36;21.57;;;16.10;;
74245;SDS011;62601;51.044;13.788;2022-10-30T05:13:56;21.13;;;16.93;;
74245;SDS011;62601;51.044;13.788;2022-10-30T05:16:16;21.73;;;16.50;;
74245;SDS011;62601;51.044;13.788;2022-10-30T05:18:38;20.20;;;16.47;;
74245;SDS011;62601;51.044;13.788;2022-10-30T05:20:58;18.80;;;15.63;;
74245;SDS011;62601;51.044;13.788;2022-10-30T05:23:19;24.07;;;15.70;;
74245;SDS011;62601;51.044;13.788;2022-10-30T05:25:39;25.27;;;16.43;;
74245;SDS011;62601;51.044;13.788;2022-10-30T05:28:02;18.90;;;15.40;;
74245;SDS011;62601;51.044;13.788;2022-10-30T05:30:32;21.00;;;15.67;;
74245;SDS011;62601;51.044;13.788;2022-10-30T05:32:59;20.63;;;16.17;;
74245;SDS011;62601;51.044;13.788;2022-10-30T05:35:21;19.73;;;16.00;;
74245;SDS011;62601;51.044;13.788;2022-10-30T05:37:42;23.63;;;16.20;;
74245;SDS011;62601;51.044;13.788;2022-10-30T05:40:03;19.73;;;15.47;;
74245;SDS011;62601;51.044;13.788;2022-10-30T05:42:25;19.10;;;15.40;;
74245;SDS011;62601;51.044;13.788;2022-10-30T05:44:46;21.10;;;16.13;;
74245;SDS011;62601;51.044;13.788;2022-10-30T05:47:07;23.70;;;16.57;;
74245;SDS011;62601;51.044;13.788;2022-10-30T05:49:30;18.70;;;15.50;;
74245;SDS011;62601;51.044;13.788;2022-10-30T05:51:51;22.87;;;16.80;;
74245;SDS011;62601;51.044;13.788;2022-10-30T05:54:13;25.00;;;15.03;;
74245;SDS011;62601;51.044;13.788;2022-10-30T05:56:34;24.30;;;16.20;;
74245;SDS011;62601;51.044;13.788;2022-10-30T05:58:56;20.37;;;15.00;;
74245;SDS011;62601;51.044;13.788;2022-10-30T06:01:17;20.67;;;15.13;;
74245;SDS011;62601;51.044;13.788;2022-10-30T06:03:39;20.07;;;15.93;;
74245;SDS011;62601;51.044;13.788;2022-10-30T06:05:59;17.70;;;15.50;;
74245;SDS011;62601;51.044;13.788;2022-10-30T06:08:20;21.53;;;14.80;;
74245;SDS011;62601;51.044;13.788;2022-10-30T06:10:43;20.43;;;16.20;;
74245;SDS011;62601;51.044;13.788;2022-10-30T06:13:04;20.10;;;15.50;;
74245;SDS011;62601;51.044;13.788;2022-10-30T06:15:25;18.00;;;15.50;;
74245;SDS011;62601;51.044;13.788;2022-10-30T06:17:46;17.00;;;13.53;;
74245;SDS011;62601;51.044;13.788;2022-10-30T06:20:08;27.57;;;15.40;;
74245;SDS011;62601;51.044;13.788;2022-10-30T06:22:30;19.77;;;14.63;;
74245;SDS011;62601;51.044;13.788;2022-10-30T06:24:51;20.03;;;15.57;;
74245;SDS011;62601;51.044;13.788;2022-10-30T06:27:13;17.37;;;14.17;;
74245;SDS011;62601;51.044;13.788;2022-10-30T06:29:33;21.57;;;15.70;;
74245;SDS011;62601;51.044;13.788;2022-10-30T06:31:53;21.10;;;15.33;;
74245;SDS011;62601;51.044;13.788;2022-10-30T06:34:13;22.73;;;15.60;;
74245;SDS011;62601;51.044;13.788;2022-10-30T06:36:33;19.17;;;15.23;;
74245;SDS011;62601;51.044;13.788;2022-10-30T06:38:53;22.43;;;15.93;;
74245;SDS011;62601;51.044;13.788;2022-10-30T06:41:13;19.50;;;15.53;;
74245;SDS011;62601;51.044;13.788;2022-10-30T06:43:33;21.93;;;15.80;;
74245;SDS011;62601;51.044;13.788;2022-10-30T06:45:55;25.13;;;16.00;;
74245;SDS011;62601;51.044;13.788;2022-10-30T06:48:18;22.03;;;16.40;;
74245;SDS011;62601;51.044;13.788;2022-10-30T06:50:39;32.83;;;17.00;;
74245;SDS011;62601;51.044;13.788;2022-10-30T06:52:59;22.83;;;15.80;;
74245;SDS011;62601;51.044;13.788;2022-10-30T06:55:20;21.87;;;15.30;;
74245;SDS011;62601;51.044;13.788;2022-10-30T06:57:40;22.07;;;17.20;;
74245;SDS011;62601;51.044;13.788;2022-10-30T07:00:03;22.53;;;16.13;;
74245;SDS011;62601;51.044;13.788;2022-10-30T07:02:25;20.40;;;16.47;;
74245;SDS011;62601;51.044;13.788;2022-10-30T07:04:46;17.47;;;14.90;;
74245;SDS011;62601;51.044;13.788;2022-10-30T07:07:08;21.20;;;16.03;;
74245;SDS011;62601;51.044;13.788;2022-10-30T07:09:30;21.00;;;15.60;;
74245;SDS011;62601;51.044;13.788;2022-10-30T07:11:50;19.50;;;15.70;;
74245;SDS011;62601;51.044;13.788;2022-10-30T07:14:10;21.33;;;15.90;;
74245;SDS011;62601;51.044;13.788;2022-10-30T07:16:30;19.73;;;15.27;;
74245;SDS011;62601;51.044;13.788;2022-10-30T07:18:52;18.10;;;15.77;;
74245;SDS011;62601;51.044;13.788;2022-10-30T07:21:12;20.53;;;16.40;;
74245;SDS011;62601;51.044;13.788;2022-10-30T07:23:32;20.17;;;15.50;;
74245;SDS011;62601;51.044;13.788;2022-10-30T07:25:53;25.70;;;18.70;;
74245;SDS011;62601;51.044;13.788;2022-10-30T07:28:15;21.90;;;17.40;;
74245;SDS011;62601;51.044;13.788;2022-10-30T07:30:36;23.53;;;18.20;;
74245;SDS011;62601;51.044;13.788;2022-10-30T07:33:06;25.40;;;17.40;;
74245;SDS011;62601;51.044;13.788;2022-10-30T07:35:28;20.53;;;17.20;;
74245;SDS011;62601;51.044;13.788;2022-10-30T07:37:50;24.93;;;16.07;;
74245;SDS011;62601;51.044;13.788;2022-10-30T07:40:11;21.20;;;17.90;;
74245;SDS011;62601;51.044;13.788;2022-10-30T07:42:31;20.17;;;17.00;;
74245;SDS011;62601;51.044;13.788;2022-10-30T07:44:52;21.87;;;17.50;;
74245;SDS011;62601;51.044;13.788;2022-10-30T07:47:13;21.00;;;16.23;;
74245;SDS011;62601;51.044;13.788;2022-10-30T07:49:34;23.07;;;17.60;;
74245;SDS011;62601;51.044;13.788;2022-10-30T07:51:55;20.80;;;16.67;;
74245;SDS011;62601;51.044;13.788;2022-10-30T07:54:15;21.70;;;17.10;;
74245;SDS011;62601;51.044;13.788;2022-10-30T07:56:35;21.87;;;18.07;;
74245;SDS011;62601;51.044;13.788;2022-10-30T07:58:55;22.60;;;17.47;;
74245;SDS011;62601;51.044;13.788;2022-10-30T08:01:16;21.07;;;16.60;;
74245;SDS011;62601;51.044;13.788;2022-10-30T08:03:36;24.40;;;17.87;;
74245;SDS011;62601;51.044;13.788;2022-10-30T08:05:56;23.80;;;18.07;;
74245;SDS011;62601;51.044;13.788;2022-10-30T08:08:16;24.10;;;18.07;;
74245;SDS011;62601;51.044;13.788;2022-10-30T08:10:36;23.70;;;16.63;;
74245;SDS011;62601;51.044;13.788;2022-10-30T08:12:57;26.73;;;17.77;;
74245;SDS011;62601;51.044;13.788;2022-10-30T08:15:18;25.03;;;18.83;;
74245;SDS011;62601;51.044;13.788;2022-10-30T08:17:45;22.90;;;17.13;;
74245;SDS011;62601;51.044;13.788;2022-10-30T08:20:07;24.53;;;19.50;;
74245;SDS011;62601;51.044;13.788;2022-10-30T08:22:29;27.50;;;18.90;;
74245;SDS011;62601;51.044;13.788;2022-10-30T08:24:50;26.40;;;18.50;;
74245;SDS011;62601;51.044;13.788;2022-10-30T08:27:12;25.00;;;19.37;;
74245;SDS011;62601;51.044;13.788;2022-10-30T08:29:33;24.37;;;17.60;;
74245;SDS011;62601;51.044;13.788;2022-10-30T08:31:54;22.00;;;17.57;;
74245;SDS011;62601;51.044;13.788;2022-10-30T08:34:16;27.80;;;17.87;;
74245;SDS011;62601;51.044;13.788;2022-10-30T08:36:36;24.70;;;17.70;;
74245;SDS011;62601;51.044;13.788;2022-10-30T08:39:00;25.53;;;19.00;;
74245;SDS011;62601;51.044;13.788;2022-10-30T08:41:20;23.57;;;18.70;;
74245;SDS011;62601;51.044;13.788;2022-10-30T08:43:42;23.80;;;19.00;;
74245;SDS011;62601;51.044;13.788;2022-10-30T08:46:03;30.63;;;20.13;;
74245;SDS011;62601;51.044;13.788;2022-10-30T08:48:24;27.77;;;18.70;;
74245;SDS011;62601;51.044;13.788;2022-10-30T08:50:45;28.03;;;19.00;;
74245;SDS011;62601;51.044;13.788;2022-10-30T08:53:06;22.50;;;17.60;;
74245;SDS011;62601;51.044;13.788;2022-10-30T08:55:29;19.43;;;16.83;;
74245;SDS011;62601;51.044;13.788;2022-10-30T08:57:50;23.40;;;16.63;;
74245;SDS011;62601;51.044;13.788;2022-10-30T09:00:11;19.93;;;17.30;;
74245;SDS011;62601;51.044;13.788;2022-10-30T09:02:33;25.40;;;20.60;;
74245;SDS011;62601;51.044;13.788;2022-10-30T09:04:55;25.17;;;17.27;;
74245;SDS011;62601;51.044;13.788;2022-10-30T09:07:15;23.13;;;16.60;;
74245;SDS011;62601;51.044;13.788;2022-10-30T09:09:35;26.67;;;20.10;;
74245;SDS011;62601;51.044;13.788;2022-10-30T09:11:59;23.10;;;17.73;;
74245;SDS011;62601;51.044;13.788;2022-10-30T09:14:20;20.40;;;16.77;;
74245;SDS011;62601;51.044;13.788;2022-10-30T09:16:42;19.67;;;16.00;;
74245;SDS011;62601;51.044;13.788;2022-10-30T09:19:04;22.17;;;16.80;;
74245;SDS011;62601;51.044;13.788;2022-10-30T09:21:24;21.93;;;18.13;;
74245;SDS011;62601;51.044;13.788;2022-10-30T09:23:44;21.40;;;17.20;;
74245;SDS011;62601;51.044;13.788;2022-10-30T09:26:04;19.23;;;16.13;;
74245;SDS011;62601;51.044;13.788;2022-10-30T09:28:25;22.27;;;16.30;;
74245;SDS011;62601;51.044;13.788;2022-10-30T09:30:45;18.87;;;16.83;;
74245;SDS011;62601;51.044;13.788;2022-10-30T09:33:07;22.43;;;17.33;;
74245;SDS011;62601;51.044;13.788;2022-10-30T09:35:27;22.37;;;17.20;;
74245;SDS011;62601;51.044;13.788;2022-10-30T09:37:49;21.13;;;16.30;;
74245;SDS011;62601;51.044;13.788;2022-10-30T09:41:00;20.30;;;15.83;;
74245;SDS011;62601;51.044;13.788;2022-10-30T09:42:52;19.70;;;15.53;;
74245;SDS011;62601;51.044;13.788;2022-10-30T09:48:00;21.57;;;16.63;;
74245;SDS011;62601;51.044;13.788;2022-10-30T09:50:38;20.93;;;16.07;;
74245;SDS011;62601;51.044;13.788;2022-10-30T09:53:02;19.93;;;15.53;;
74245;SDS011;62601;51.044;13.788;2022-10-30T09:58:45;18.23;;;15.30;;
74245;SDS011;62601;51.044;13.788;2022-10-30T10:00:49;17.50;;;15.30;;
74245;SDS011;62601;51.044;13.788;2022-10-30T10:03:25;19.60;;;15.70;;
74245;SDS011;62601;51.044;13.788;2022-10-30T10:05:51;20.00;;;16.23;;
74245;SDS011;62601;51.044;13.788;2022-10-30T10:08:15;20.40;;;15.10;;
74245;SDS011;62601;51.044;13.788;2022-10-30T10:10:44;19.97;;;15.60;;
74245;SDS011;62601;51.044;13.788;2022-10-30T10:13:07;19.23;;;16.40;;
74245;SDS011;62601;51.044;13.788;2022-10-30T10:18:33;17.70;;;15.17;;
74245;SDS011;62601;51.044;13.788;2022-10-30T10:20:56;22.13;;;17.07;;
74245;SDS011;62601;51.044;13.788;2022-10-30T10:23:31;23.97;;;16.40;;
74245;SDS011;62601;51.044;13.788;2022-10-30T10:25:54;17.77;;;15.40;;
74245;SDS011;62601;51.044;13.788;2022-10-30T10:28:25;18.10;;;14.80;;
74245;SDS011;62601;51.044;13.788;2022-10-30T10:30:54;17.63;;;15.17;;
74245;SDS011;62601;51.044;13.788;2022-10-30T10:35:49;19.93;;;16.00;;
74245;SDS011;62601;51.044;13.788;2022-10-30T10:38:15;18.73;;;16.20;;
74245;SDS011;62601;51.044;13.788;2022-10-30T10:43:02;18.73;;;13.97;;
74245;SDS011;62601;51.044;13.788;2022-10-30T10:51:12;25.83;;;19.47;;
74245;SDS011;62601;51.044;13.788;2022-10-30T10:56:08;24.90;;;21.33;;
74245;SDS011;62601;51.044;13.788;2022-10-30T10:58:33;19.40;;;16.87;;
74245;SDS011;62601;51.044;13.788;2022-10-30T11:00:57;22.80;;;15.13;;
74245;SDS011;62601;51.044;13.788;2022-10-30T11:03:24;23.07;;;16.43;;
74245;SDS011;62601;51.044;13.788;2022-10-30T11:05:51;19.50;;;16.40;;
74245;SDS011;62601;51.044;13.788;2022-10-30T11:08:31;19.07;;;15.70;;
74245;SDS011;62601;51.044;13.788;2022-10-30T11:10:56;23.43;;;16.93;;
74245;SDS011;62601;51.044;13.788;2022-10-30T11:13:17;18.90;;;16.47;;
74245;SDS011;62601;51.044;13.788;2022-10-30T11:18:16;18.00;;;15.70;;
74245;SDS011;62601;51.044;13.788;2022-10-30T11:25:55;17.43;;;15.37;;
74245;SDS011;62601;51.044;13.788;2022-10-30T11:28:23;21.73;;;15.60;;
74245;SDS011;62601;51.044;13.788;2022-10-30T11:30:52;21.60;;;15.60;;
74245;SDS011;62601;51.044;13.788;2022-10-30T11:33:36;19.10;;;15.10;;
74245;SDS011;62601;51.044;13.788;2022-10-30T11:35:57;22.33;;;16.17;;
74245;SDS011;62601;51.044;13.788;2022-10-30T11:38:27;20.13;;;16.80;;
74245;SDS011;62601;51.044;13.788;2022-10-30T11:40:47;20.43;;;15.83;;
74245;SDS011;62601;51.044;13.788;2022-10-30T11:43:11;19.60;;;16.13;;
74245;SDS011;62601;51.044;13.788;2022-10-30T11:45:39;17.67;;;15.67;;
74245;SDS011;62601;51.044;13.788;2022-10-30T11:48:01;20.00;;;16.60;;
74245;SDS011;62601;51.044;13.788;2022-10-30T11:50:30;19.53;;;15.80;;
74245;SDS011;62601;51.044;13.788;2022-10-30T11:52:54;20.63;;;16.87;;
74245;SDS011;62601;51.044;13.788;2022-10-30T11:55:20;19.20;;;16.50;;
74245;SDS011;62601;51.044;13.788;2022-10-30T11:57:45;22.10;;;17.80;;
74245;SDS011;62601;51.044;13.788;2022-10-30T12:00:18;24.70;;;18.50;;
74245;SDS011;62601;51.044;13.788;2022-10-30T12:02:40;19.63;;;16.60;;
74245;SDS011;62601;51.044;13.788;2022-10-30T12:05:01;20.00;;;16.80;;
74245;SDS011;62601;51.044;13.788;2022-10-30T12:07:31;23.03;;;17.30;;
74245;SDS011;62601;51.044;13.788;2022-10-30T12:09:53;19.30;;;16.40;;
74245;SDS011;62601;51.044;13.788;2022-10-30T12:12:31;25.17;;;16.50;;
74245;SDS011;62601;51.044;13.788;2022-10-30T12:14:51;20.80;;;16.17;;
74245;SDS011;62601;51.044;13.788;2022-10-30T12:17:16;21.50;;;16.13;;
74245;SDS011;62601;51.044;13.788;2022-10-30T12:19:38;21.63;;;17.27;;
74245;SDS011;62601;51.044;13.788;2022-10-30T12:22:05;21.00;;;16.80;;
74245;SDS011;62601;51.044;13.788;2022-10-30T12:26:46;18.23;;;14.83;;
74245;SDS011;62601;51.044;13.788;2022-10-30T12:29:12;22.13;;;16.17;;
74245;SDS011;62601;51.044;13.788;2022-10-30T12:31:34;20.33;;;16.00;;
74245;SDS011;62601;51.044;13.788;2022-10-30T12:36:49;19.17;;;15.87;;
74245;SDS011;62601;51.044;13.788;2022-10-30T12:39:23;19.77;;;16.77;;
74245;SDS011;62601;51.044;13.788;2022-10-30T12:41:57;21.60;;;16.40;;
74245;SDS011;62601;51.044;13.788;2022-10-30T12:44:31;19.73;;;16.97;;
74245;SDS011;62601;51.044;13.788;2022-10-30T12:47:11;18.47;;;15.43;;
74245;SDS011;62601;51.044;13.788;2022-10-30T12:49:50;19.23;;;15.43;;
74245;SDS011;62601;51.044;13.788;2022-10-30T12:52:18;19.57;;;15.40;;
74245;SDS011;62601;51.044;13.788;2022-10-30T12:54:59;21.97;;;15.97;;
74245;SDS011;62601;51.044;13.788;2022-10-30T13:00:13;21.13;;;16.43;;
74245;SDS011;62601;51.044;13.788;2022-10-30T13:05:32;17.73;;;15.67;;
74245;SDS011;62601;51.044;13.788;2022-10-30T13:12:56;19.23;;;15.47;;
74245;SDS011;62601;51.044;13.788;2022-10-30T13:15:29;17.67;;;14.83;;
74245;SDS011;62601;51.044;13.788;2022-10-30T13:17:52;18.10;;;15.70;;
74245;SDS011;62601;51.044;13.788;2022-10-30T13:20:14;19.13;;;16.60;;
74245;SDS011;62601;51.044;13.788;2022-10-30T13:22:58;23.27;;;20.73;;
74245;SDS011;62601;51.044;13.788;2022-10-30T13:25:24;20.27;;;17.00;;
74245;SDS011;62601;51.044;13.788;2022-10-30T13:30:33;23.03;;;15.67;;
74245;SDS011;62601;51.044;13.788;2022-10-30T13:33:03;18.47;;;16.23;;
74245;SDS011;62601;51.044;13.788;2022-10-30T13:38:12;21.10;;;16.20;;
74245;SDS011;62601;51.044;13.788;2022-10-30T13:40:43;22.73;;;16.17;;
74245;SDS011;62601;51.044;13.788;2022-10-30T13:48:35;20.80;;;15.30;;
74245;SDS011;62601;51.044;13.788;2022-10-30T13:53:36;21.50;;;16.30;;
74245;SDS011;62601;51.044;13.788;2022-10-30T13:55:58;25.67;;;17.40;;
74245;SDS011;62601;51.044;13.788;2022-10-30T13:58:21;21.93;;;16.47;;
74245;SDS011;62601;51.044;13.788;2022-10-30T14:01:08;21.90;;;17.13;;
74245;SDS011;62601;51.044;13.788;2022-10-30T14:09:07;21.33;;;18.87;;
74245;SDS011;62601;51.044;13.788;2022-10-30T14:11:32;22.87;;;18.10;;
74245;SDS011;62601;51.044;13.788;2022-10-30T14:13:56;22.77;;;17.03;;
74245;SDS011;62601;51.044;13.788;2022-10-30T14:19:07;21.67;;;17.40;;
74245;SDS011;62601;51.044;13.788;2022-10-30T14:21:36;18.77;;;16.87;;
74245;SDS011;62601;51.044;13.788;2022-10-30T14:24:17;19.27;;;15.37;;
74245;SDS011;62601;51.044;13.788;2022-10-30T14:26:45;24.20;;;18.30;;
74245;SDS011;62601;51.044;13.788;2022-10-30T14:31:46;23.33;;;20.30;;
74245;SDS011;62601;51.044;13.788;2022-10-30T14:34:24;19.07;;;16.07;;
74245;SDS011;62601;51.044;13.788;2022-10-30T14:36:50;25.33;;;16.60;;
74245;SDS011;62601;51.044;13.788;2022-10-30T14:41:47;21.40;;;15.67;;
74245;SDS011;62601;51.044;13.788;2022-10-30T14:47:37;20.73;;;16.30;;
74245;SDS011;62601;51.044;13.788;2022-10-30T14:49:44;17.57;;;15.40;;
74245;SDS011;62601;51.044;13.788;2022-10-30T14:52:14;18.70;;;15.50;;
74245;SDS011;62601;51.044;13.788;2022-10-30T14:57:22;24.20;;;17.90;;
74245;SDS011;62601;51.044;13.788;2022-10-30T15:02:54;21.13;;;17.17;;
74245;SDS011;62601;51.044;13.788;2022-10-30T15:08:21;24.13;;;18.53;;
74245;SDS011;62601;51.044;13.788;2022-10-30T15:13:24;23.13;;;17.73;;
74245;SDS011;62601;51.044;13.788;2022-10-30T15:15:44;27.30;;;18.07;;
74245;SDS011;62601;51.044;13.788;2022-10-30T15:18:10;27.73;;;20.63;;
74245;SDS011;62601;51.044;13.788;2022-10-30T15:20:36;29.83;;;21.07;;
74245;SDS011;62601;51.044;13.788;2022-10-30T15:22:59;28.47;;;20.70;;
74245;SDS011;62601;51.044;13.788;2022-10-30T15:25:22;27.03;;;21.20;;
74245;SDS011;62601;51.044;13.788;2022-10-30T15:27:43;31.50;;;25.00;;
74245;SDS011;62601;51.044;13.788;2022-10-30T15:30:05;32.47;;;23.83;;
74245;SDS011;62601;51.044;13.788;2022-10-30T15:32:27;29.37;;;25.07;;